Chengdu Shuangliu International Airport
ZUUU : now visible

Airfield :











YOU CAN JOIN US ON...

 
LOGIN :

Register | Disclaimer

   EN    FR    IT 

 









Legend :    VFR   Marginal VFR   IFR   Intensive IFR   Very Intensive IFR
Visi :
Ceiling :
>= 8 km
>= 3000ft
5 to 8 km
1000 to 3000 ft
1500m to 5 km
500 to 1000 ft
800 to 1500m
200 to 500 ft
< 800m
< 200 ft
Symbols :   Thunderstorms  Fog  Heavy snow  Heavy precipitations  Wind > 20 kt






- Airport Elevation : 1625 ft
- IATA code : CTU


ZUUU - Chengdu Shuangliu International

CURRENT METAR :
  • 211400Z 18002MPS 130V230 9999 SCT050 22/15 Q1010 NOSIG

EXPIRED METARs :
  • 211300Z 10002MPS 040V150 9999 FEW040CB SCT040 22/17 Q1010 NOSIG
  • 211200Z 05003MPS 010V100 9999 -SHRA FEW033CB SCT033 22/16 Q1009 NOSIG
  • 211100Z 10004MPS 050V150 9999 -SHRA FEW033CB SCT033 24/15 Q1008 NOSIG
  • 211000Z 12005MPS 070V150 9999 FEW033 25/14 Q1007 BECMG TL1130 VRB02MPS

TAF TAF ZUUU
Valid from the 21 at 12:00 until the 22 at 12:00 UTC


210902Z 2112/2212 02003MPS 6000 SCT050 TX26/2207Z TN17/2122Z
TEMPO 2116/2120 -SHRA FEW030CB BKN040
ZPKM FIR / Asia



MET'MAP, your aeronautical weather chart ! - Copyright ORBIFLY December 2007 - Disclaimer

ORBIFLY MET'MAP TEAM :

Programming & Development : Alexandra Zaïnal
Original concept : Baudouin d'Aumeries
Technical & hardware support : Manuel Goepfert
Assistance : Marc-Olivier Méhu




SOURCES & CREDITS :

   NOAA       Earth
Advisory